Time;durP1;ratioP1;P1;durP2;ratioP2;P2;SDS_P1;SDS_P2;PMS_P1;PMS_P2;Temp;Humidity;BMP_temperature;BMP_pressure;BME280_temperature;BME280_humidity;BME280_pressure;Samples;Min_cycle;Max_cycle;Signal;HPM_P1;HPM_P2
2024/03/05 00:00:11;;;;;;;4.57;1.27;;;7.30;99.90;;;;;;5013855;28;20445;-66
2024/03/05 00:02:38;;;;;;;5.57;1.15;;;7.30;99.90;;;;;;5015664;28;20089;-66
2024/03/05 00:05:06;;;;;;;4.28;1.25;;;7.30;99.90;;;;;;5015269;28;20046;-67
2024/03/05 00:07:33;;;;;;;5.00;1.52;;;7.30;99.90;;;;;;5014346;28;20075;-66
2024/03/05 00:10:00;;;;;;;4.53;1.27;;;7.30;99.90;;;;;;5015235;28;20030;-67
2024/03/05 00:12:27;;;;;;;5.28;1.50;;;7.40;99.90;;;;;;5015363;28;20042;-67
2024/03/05 00:14:55;;;;;;;4.78;1.30;;;7.40;99.90;;;;;;5014539;28;20053;-68
2024/03/05 00:17:23;;;;;;;4.47;1.10;;;7.40;99.90;;;;;;5015254;28;20041;-68
2024/03/05 00:19:50;;;;;;;6.15;1.10;;;7.40;99.90;;;;;;5014024;28;20046;-68
2024/03/05 00:22:17;;;;;;;5.53;1.45;;;7.40;99.90;;;;;;5014625;28;20050;-67
2024/03/05 00:24:44;;;;;;;3.15;1.00;;;7.40;99.90;;;;;;5015212;28;20046;-67
2024/03/05 00:27:11;;;;;;;4.90;1.35;;;7.40;99.90;;;;;;5015012;28;20065;-67
2024/03/05 00:29:38;;;;;;;5.82;1.10;;;7.40;99.90;;;;;;5014624;28;20586;-67
2024/03/05 00:32:05;;;;;;;7.72;1.45;;;7.40;99.90;;;;;;5013173;28;20042;-67
2024/03/05 00:34:31;;;;;;;4.35;1.25;;;7.40;99.90;;;;;;5014616;28;20045;-68
2024/03/05 00:36:58;;;;;;;6.22;1.10;;;7.40;99.90;;;;;;5014826;28;20042;-67
2024/03/05 00:39:25;;;;;;;5.55;1.73;;;7.40;99.90;;;;;;5014839;28;20038;-67
2024/03/05 00:41:52;;;;;;;4.03;1.30;;;7.40;99.90;;;;;;5014741;28;20049;-68
2024/03/05 00:44:19;;;;;;;5.72;1.50;;;7.50;99.90;;;;;;5014510;28;20042;-67
2024/03/05 00:46:45;;;;;;;6.63;1.15;;;7.50;99.90;;;;;;5014647;28;20100;-67
2024/03/05 00:49:12;;;;;;;3.75;1.10;;;7.40;99.90;;;;;;5014738;28;20120;-67
2024/03/05 00:51:40;;;;;;;6.60;1.75;;;7.40;99.90;;;;;;5014324;28;20046;-67
2024/03/05 00:54:07;;;;;;;6.60;1.60;;;7.40;99.90;;;;;;5017129;28;20475;-67
2024/03/05 00:56:34;;;;;;;5.68;1.90;;;7.40;99.90;;;;;;5033941;28;20455;-67
2024/03/05 00:59:01;;;;;;;8.30;1.45;;;7.40;99.90;;;;;;5033716;28;20095;-67
2024/03/05 01:01:28;;;;;;;12.85;2.22;;;7.40;99.90;;;;;;5033909;28;20046;-67
2024/03/05 01:03:56;;;;;;;5.18;1.45;;;7.40;99.90;;;;;;5034229;28;20045;-67
2024/03/05 01:06:22;;;;;;;7.18;1.77;;;7.30;99.90;;;;;;5034008;28;20049;-67
2024/03/05 01:08:49;;;;;;;8.95;1.67;;;7.30;99.90;;;;;;5033753;28;20041;-68
2024/03/05 01:11:16;;;;;;;6.32;1.77;;;7.40;99.90;;;;;;5032543;28;20092;-67
2024/03/05 01:13:43;;;;;;;6.18;1.80;;;7.30;99.90;;;;;;5034120;28;20478;-67
2024/03/05 01:16:10;;;;;;;6.75;1.70;;;7.30;99.90;;;;;;5033586;28;20057;-68
2024/03/05 01:18:37;;;;;;;8.73;1.75;;;7.30;99.90;;;;;;5032860;28;20116;-67
2024/03/05 01:21:05;;;;;;;4.72;1.60;;;7.30;99.90;;;;;;5032879;28;20064;-67
2024/03/05 01:23:33;;;;;;;4.25;1.20;;;7.30;99.90;;;;;;5033484;28;20041;-67
2024/03/05 01:26:00;;;;;;;8.57;1.58;;;7.30;99.90;;;;;;5033551;28;20052;-68
2024/03/05 01:28:31;;;;;;;7.60;1.42;;;7.30;99.90;;;;;;5033814;28;20095;-66
2024/03/05 01:30:58;;;;;;;5.90;1.50;;;7.30;99.90;;;;;;5033378;28;20061;-67
2024/03/05 01:33:26;;;;;;;6.50;1.77;;;7.30;99.90;;;;;;5032874;28;20038;-67
2024/03/05 01:35:52;;;;;;;6.20;1.45;;;7.30;99.90;;;;;;5032065;28;20500;-67
2024/03/05 01:38:19;;;;;;;5.03;1.35;;;7.30;99.90;;;;;;5033433;28;20062;-67
2024/03/05 01:40:46;;;;;;;5.45;1.40;;;7.30;99.90;;;;;;5033475;28;20054;-67
2024/03/05 01:43:14;;;;;;;5.55;1.58;;;7.40;99.90;;;;;;5036880;28;20052;-67
2024/03/05 01:45:42;;;;;;;5.95;1.52;;;7.30;99.90;;;;;;5037592;28;20112;-67
2024/03/05 01:48:09;;;;;;;3.00;1.17;;;7.30;99.90;;;;;;5038000;28;20076;-67
2024/03/05 01:50:36;;;;;;;4.55;1.33;;;7.30;99.90;;;;;;5037675;28;20532;-67
2024/03/05 01:53:03;;;;;;;7.25;1.70;;;7.40;99.90;;;;;;5037650;28;20059;-67
2024/03/05 01:55:30;;;;;;;5.35;1.75;;;7.40;99.90;;;;;;5037182;28;20132;-67
2024/03/05 01:58:02;;;;;;;7.03;1.30;;;7.40;99.90;;;;;;5036161;28;20048;-67
2024/03/05 02:00:31;;;;;;;4.82;1.25;;;7.40;99.90;;;;;;5037224;28;20478;-67
2024/03/05 02:02:58;;;;;;;5.57;1.50;;;7.40;99.90;;;;;;5037836;28;20045;-67
2024/03/05 02:05:24;;;;;;;7.10;1.67;;;7.40;99.90;;;;;;5036964;28;20049;-67
2024/03/05 02:07:51;;;;;;;5.22;1.52;;;7.40;99.90;;;;;;5037309;28;20046;-67
2024/03/05 02:10:18;;;;;;;3.50;1.60;;;7.40;99.90;;;;;;5037344;28;20061;-68
2024/03/05 02:12:45;;;;;;;3.85;1.58;;;7.40;99.90;;;;;;5036809;28;20041;-67
2024/03/05 02:15:12;;;;;;;5.53;1.73;;;7.40;99.90;;;;;;5036908;28;20063;-68
2024/03/05 02:17:40;;;;;;;5.32;1.85;;;7.40;99.90;;;;;;5036717;28;20445;-67
2024/03/05 02:20:10;;;;;;;5.10;1.92;;;7.40;99.90;;;;;;5036686;28;20038;-67
2024/03/05 02:22:36;;;;;;;5.10;1.75;;;7.40;99.90;;;;;;5037300;28;20045;-67
2024/03/05 02:25:03;;;;;;;5.78;1.73;;;7.40;99.90;;;;;;5037178;28;20041;-67
2024/03/05 02:27:30;;;;;;;5.47;1.65;;;7.30;99.90;;;;;;5037013;28;20034;-67
2024/03/05 02:30:00;;;;;;;9.68;3.17;;;7.30;99.90;;;;;;5036962;28;20041;-67
2024/03/05 02:32:27;;;;;;;6.40;1.30;;;7.30;99.90;;;;;;5036968;28;20042;-67
2024/03/05 02:34:54;;;;;;;4.07;1.42;;;7.30;99.90;;;;;;5036688;28;20103;-66
2024/03/05 02:37:24;;;;;;;4.88;1.77;;;7.30;99.90;;;;;;5037002;28;20045;-66
2024/03/05 02:39:51;;;;;;;5.63;1.80;;;7.30;99.90;;;;;;5035457;28;20048;-66
2024/03/05 02:42:18;;;;;;;7.38;1.98;;;7.30;99.90;;;;;;5035545;28;20041;-66
2024/03/05 02:44:44;;;;;;;5.50;1.50;;;7.30;99.90;;;;;;5036303;28;20048;-66
2024/03/05 02:47:11;;;;;;;5.93;1.80;;;7.30;99.90;;;;;;5036249;28;20049;-66
2024/03/05 02:49:38;;;;;;;6.32;1.55;;;7.30;99.90;;;;;;5036891;28;20053;-66
2024/03/05 02:52:05;;;;;;;7.38;1.73;;;7.30;99.90;;;;;;5036050;28;20037;-66
2024/03/05 02:54:33;;;;;;;4.38;1.83;;;7.30;99.90;;;;;;5035441;28;20044;-66
2024/03/05 02:57:00;;;;;;;5.15;1.83;;;7.30;99.90;;;;;;5035840;28;20037;-67
2024/03/05 02:59:27;;;;;;;4.60;1.60;;;7.30;99.90;;;;;;5036107;28;20038;-66
2024/03/05 03:01:53;;;;;;;5.93;1.67;;;7.40;99.90;;;;;;5035935;28;20449;-66
2024/03/05 03:04:20;;;;;;;7.22;1.58;;;7.30;99.90;;;;;;5034960;28;20053;-66
2024/03/05 03:06:47;;;;;;;7.80;1.83;;;7.40;99.90;;;;;;5036303;28;20051;-67
2024/03/05 03:09:14;;;;;;;4.32;1.50;;;7.30;99.90;;;;;;5035852;28;20034;-66
2024/03/05 03:11:41;;;;;;;3.13;1.30;;;7.30;99.90;;;;;;5036008;28;20037;-66
2024/03/05 03:14:09;;;;;;;4.38;1.52;;;7.30;99.90;;;;;;5036134;28;20526;-67
2024/03/05 03:16:36;;;;;;;3.53;1.30;;;7.30;99.90;;;;;;5034792;28;20044;-66
2024/03/05 03:19:04;;;;;;;5.10;1.38;;;7.30;99.90;;;;;;5035759;28;20116;-67
2024/03/05 03:21:31;;;;;;;4.07;1.48;;;7.30;99.90;;;;;;5035990;28;20088;-67
2024/03/05 03:23:58;;;;;;;4.93;2.60;;;7.30;99.90;;;;;;5035876;28;20100;-66
2024/03/05 03:26:24;;;;;;;4.80;1.50;;;7.30;99.90;;;;;;5034171;28;20041;-66
2024/03/05 03:28:52;;;;;;;4.43;1.33;;;7.30;99.90;;;;;;5036050;28;20110;-66
2024/03/05 03:31:19;;;;;;;3.97;1.70;;;7.30;99.90;;;;;;5035367;28;20482;-66
2024/03/05 03:33:46;;;;;;;3.97;1.63;;;7.30;99.90;;;;;;5036105;28;20041;-66
2024/03/05 03:36:13;;;;;;;4.03;1.13;;;7.30;99.90;;;;;;5035267;28;20037;-66
2024/03/05 03:38:40;;;;;;;3.00;1.30;;;7.30;99.90;;;;;;5035442;28;20045;-66
2024/03/05 03:41:08;;;;;;;5.35;1.40;;;7.20;99.90;;;;;;5035507;28;20475;-66
2024/03/05 03:43:34;;;;;;;3.47;1.63;;;7.20;99.90;;;;;;5035100;28;20537;-66
2024/03/05 03:46:02;;;;;;;3.95;1.40;;;7.20;99.90;;;;;;5035459;28;20046;-66
2024/03/05 03:48:29;;;;;;;4.07;2.00;;;7.20;99.90;;;;;;5035578;28;20053;-66
2024/03/05 03:50:56;;;;;;;4.28;1.60;;;7.20;99.90;;;;;;5034951;28;20037;-66
2024/03/05 03:53:23;;;;;;;3.53;1.90;;;7.20;99.90;;;;;;5035554;28;20510;-66
2024/03/05 03:55:49;;;;;;;5.97;1.75;;;7.20;99.90;;;;;;5035221;28;20041;-65
2024/03/05 03:58:17;;;;;;;3.97;1.48;;;7.20;99.90;;;;;;5035130;28;20046;-65
2024/03/05 04:00:44;;;;;;;5.40;1.60;;;7.20;99.90;;;;;;5035243;28;20073;-66
2024/03/05 04:03:11;;;;;;;4.32;1.55;;;7.20;99.90;;;;;;5035347;28;20099;-66
2024/03/05 04:05:38;;;;;;;2.67;1.30;;;7.20;99.90;;;;;;5034934;28;20046;-67
2024/03/05 04:08:05;;;;;;;5.18;1.70;;;7.20;99.90;;;;;;5035406;28;20051;-66
2024/03/05 04:10:32;;;;;;;5.15;1.67;;;7.30;99.90;;;;;;5035201;28;20045;-66
2024/03/05 04:12:58;;;;;;;3.83;1.75;;;7.30;99.90;;;;;;5033891;28;20034;-66
2024/03/05 04:15:25;;;;;;;3.65;1.55;;;7.30;99.90;;;;;;5034527;28;20045;-66
2024/03/05 04:17:52;;;;;;;4.88;1.90;;;7.30;99.90;;;;;;5035004;28;20099;-65
2024/03/05 04:20:20;;;;;;;4.07;1.77;;;7.30;99.90;;;;;;5034488;28;20140;-66
2024/03/05 04:22:47;;;;;;;4.80;1.90;;;7.30;99.90;;;;;;5034780;28;20049;-66
2024/03/05 04:25:14;;;;;;;5.85;1.70;;;7.30;99.90;;;;;;5034414;28;20050;-66
2024/03/05 04:27:47;;;;;;;5.50;1.90;;;7.30;99.90;;;;;;5033761;28;20493;-65
2024/03/05 04:30:14;;;;;;;4.63;1.90;;;7.30;99.90;;;;;;5033667;28;20128;-66
2024/03/05 04:32:46;;;;;;;4.13;1.73;;;7.30;99.90;;;;;;5034740;28;20427;-65
2024/03/05 04:35:24;;;;;;;3.85;1.70;;;7.30;99.90;;;;;;5034330;28;20041;-66
2024/03/05 04:37:51;;;;;;;5.65;1.70;;;7.30;99.90;;;;;;5034768;28;20041;-65
2024/03/05 04:40:18;;;;;;;3.75;1.50;;;7.30;99.90;;;;;;5034713;28;20438;-65
2024/03/05 04:42:45;;;;;;;7.03;2.30;;;7.30;99.90;;;;;;5034343;28;20077;-65
2024/03/05 04:45:12;;;;;;;5.28;1.83;;;7.30;99.90;;;;;;5033998;28;20136;-66
2024/03/05 04:47:38;;;;;;;5.28;1.80;;;7.20;99.90;;;;;;5034326;28;20049;-65
2024/03/05 04:50:05;;;;;;;7.55;2.92;;;7.30;99.90;;;;;;5034221;28;20100;-65
2024/03/05 04:52:34;;;;;;;5.18;1.88;;;7.20;99.90;;;;;;5034341;28;20042;-66
2024/03/05 04:55:01;;;;;;;7.50;2.20;;;7.20;99.90;;;;;;5033706;28;20033;-65
2024/03/05 04:57:28;;;;;;;4.93;2.00;;;7.20;99.90;;;;;;5034334;28;20042;-66
2024/03/05 04:59:55;;;;;;;3.58;2.00;;;7.20;99.90;;;;;;5034375;28;20042;-66
2024/03/05 05:02:22;;;;;;;5.97;2.30;;;7.20;99.90;;;;;;5033828;28;20064;-66
2024/03/05 05:04:49;;;;;;;8.57;2.30;;;7.20;99.90;;;;;;5032533;28;20107;-66
2024/03/05 05:07:21;;;;;;;5.63;2.05;;;7.20;99.90;;;;;;5033976;28;20435;-66
2024/03/05 05:09:48;;;;;;;3.83;2.20;;;7.30;99.90;;;;;;5034058;28;20045;-65
2024/03/05 05:12:15;;;;;;;7.72;2.30;;;7.30;99.90;;;;;;5033652;28;20042;-66
2024/03/05 05:14:43;;;;;;;4.72;2.28;;;7.30;99.90;;;;;;5033558;28;20049;-66
2024/03/05 05:17:10;;;;;;;6.22;2.58;;;7.30;99.90;;;;;;5033151;28;20056;-65
2024/03/05 05:19:37;;;;;;;7.53;2.45;;;7.30;99.90;;;;;;5032996;28;20136;-66
2024/03/05 05:22:04;;;;;;;6.38;2.35;;;7.30;99.90;;;;;;5033689;28;20045;-66
2024/03/05 05:24:34;;;;;;;9.30;2.28;;;7.40;99.90;;;;;;5033551;28;20456;-66
2024/03/05 05:27:01;;;;;;;7.47;2.20;;;7.40;99.90;;;;;;5033508;28;20041;-65
2024/03/05 05:29:28;;;;;;;6.60;2.55;;;7.40;99.90;;;;;;5032517;28;20136;-65
2024/03/05 05:32:07;;;;;;;8.55;2.50;;;7.40;99.90;;;;;;5033538;28;20452;-65
2024/03/05 05:34:34;;;;;;;10.43;2.78;;;7.30;99.90;;;;;;5032305;28;20038;-66
2024/03/05 05:37:01;;;;;;;5.93;2.33;;;7.30;99.90;;;;;;5033274;28;20049;-66
2024/03/05 05:39:28;;;;;;;4.70;2.33;;;7.30;99.90;;;;;;5033588;28;20132;-66
2024/03/05 05:41:56;;;;;;;5.40;2.63;;;7.30;99.90;;;;;;5033500;28;20037;-66
2024/03/05 05:44:23;;;;;;;5.78;2.72;;;7.30;99.90;;;;;;5032147;28;20436;-66
2024/03/05 05:46:50;;;;;;;4.82;2.90;;;7.30;99.90;;;;;;5033197;28;20470;-66
2024/03/05 05:49:20;;;;;;;9.32;3.20;;;7.30;99.90;;;;;;5033349;28;20124;-66
2024/03/05 05:51:47;;;;;;;4.43;2.65;;;7.30;99.90;;;;;;5033683;28;20530;-66
2024/03/05 05:54:14;;;;;;;6.53;3.28;;;7.30;99.90;;;;;;5015515;28;20053;-66
2024/03/05 05:56:44;;;;;;;6.75;2.90;;;7.30;99.90;;;;;;5032185;28;20095;-66
2024/03/05 05:59:12;;;;;;;5.18;3.13;;;7.30;99.90;;;;;;5033226;28;20045;-66
2024/03/05 06:01:39;;;;;;;9.48;3.05;;;7.40;99.90;;;;;;5033799;28;20117;-67
2024/03/05 06:04:06;;;;;;;9.45;2.95;;;7.40;99.90;;;;;;5033652;28;20053;-67
2024/03/05 06:06:33;;;;;;;8.35;3.42;;;7.40;99.90;;;;;;5032972;28;20049;-67
2024/03/05 06:09:08;;;;;;;11.07;3.15;;;7.40;99.90;;;;;;5033072;28;20471;-67
2024/03/05 06:11:35;;;;;;;6.50;3.05;;;7.40;99.90;;;;;;5033613;28;20490;-67
2024/03/05 06:14:02;;;;;;;8.18;2.78;;;7.40;99.90;;;;;;5033469;28;20037;-66
2024/03/05 06:16:32;;;;;;;10.02;3.50;;;7.40;99.90;;;;;;5032838;28;20096;-66
2024/03/05 06:18:59;;;;;;;7.80;3.33;;;7.40;99.90;;;;;;5033434;28;20382;-67
2024/03/05 06:21:26;;;;;;;6.68;3.10;;;7.40;99.90;;;;;;5032829;28;20046;-67
2024/03/05 06:23:53;;;;;;;8.88;3.33;;;7.40;99.90;;;;;;5032992;28;20050;-67
2024/03/05 06:26:19;;;;;;;5.28;3.38;;;7.50;99.90;;;;;;5031936;28;20490;-67
2024/03/05 06:28:46;;;;;;;9.98;3.40;;;7.40;99.90;;;;;;5033983;28;20043;-66
2024/03/05 06:31:13;;;;;;;5.65;3.53;;;7.50;99.90;;;;;;5036596;28;20046;-67
2024/03/05 06:33:40;;;;;;;6.03;3.75;;;7.50;99.90;;;;;;5036440;28;20045;-66
2024/03/05 06:36:07;;;;;;;8.52;3.60;;;7.50;99.90;;;;;;5036432;28;20069;-65
2024/03/05 06:38:34;;;;;;;8.65;4.22;;;7.50;99.90;;;;;;5036248;28;20099;-65
2024/03/05 06:41:01;;;;;;;11.02;4.30;;;7.50;99.90;;;;;;5036268;28;20037;-65
2024/03/05 06:43:36;;;;;;;6.28;3.67;;;7.40;99.90;;;;;;5054507;28;20041;-65
2024/03/05 06:46:04;;;;;;;7.78;3.67;;;7.40;99.90;;;;;;5055482;28;20068;-66
2024/03/05 06:48:32;;;;;;;10.63;4.20;;;7.40;99.90;;;;;;5055926;28;20045;-66
2024/03/05 06:51:01;;;;;;;8.73;4.15;;;7.40;99.90;;;;;;5056242;28;20052;-65
2024/03/05 06:58:59;;;;;;;8.68;4.93;;;7.40;99.90;;;;;;5056237;28;20115;-66
2024/03/05 07:01:26;;;;;;;9.13;4.80;;;7.40;99.90;;;;;;5054760;28;20048;-66
2024/03/05 07:03:52;;;;;;;9.10;4.88;;;7.40;99.90;;;;;;5056208;28;20130;-65
2024/03/05 07:06:21;;;;;;;9.55;5.10;;;7.40;99.90;;;;;;5055128;28;20095;-65
2024/03/05 07:08:48;;;;;;;9.98;5.55;;;7.40;99.90;;;;;;5055146;28;20235;-65
2024/03/05 07:11:16;;;;;;;7.10;4.97;;;7.40;99.90;;;;;;5055549;28;20041;-65
2024/03/05 07:13:43;;;;;;;12.25;6.30;;;7.40;99.90;;;;;;5056361;28;20045;-65
2024/03/05 07:16:15;;;;;;;8.82;5.43;;;7.40;99.90;;;;;;5055739;28;20212;-65
2024/03/05 07:18:43;;;;;;;13.85;5.60;;;7.40;99.90;;;;;;5056263;28;20043;-67
2024/03/05 07:21:10;;;;;;;9.70;5.82;;;7.40;99.90;;;;;;5055969;28;20064;-65
2024/03/05 07:23:39;;;;;;;13.73;5.30;;;7.50;99.90;;;;;;5055986;28;20048;-65
2024/03/05 07:26:06;;;;;;;10.23;4.70;;;7.50;99.90;;;;;;5055415;28;20044;-65
2024/03/05 07:28:34;;;;;;;12.00;5.25;;;7.50;99.90;;;;;;5055988;28;20498;-65
2024/03/05 07:31:01;;;;;;;11.65;5.15;;;7.50;99.90;;;;;;5055829;28;20056;-65
2024/03/05 07:33:28;;;;;;;12.23;5.55;;;7.60;99.90;;;;;;5055639;28;20063;-65
2024/03/05 07:35:55;;;;;;;7.13;4.88;;;7.60;99.90;;;;;;5055369;28;20470;-66
2024/03/05 07:38:22;;;;;;;13.05;6.28;;;7.60;99.90;;;;;;5055343;28;20094;-66
2024/03/05 07:40:49;;;;;;;7.53;4.88;;;7.60;99.90;;;;;;5053834;28;20387;-66
2024/03/05 07:43:16;;;;;;;9.32;5.53;;;7.70;99.90;;;;;;5055294;28;20041;-65
2024/03/05 07:45:43;;;;;;;10.13;5.43;;;7.70;99.90;;;;;;5055296;28;20484;-65
2024/03/05 07:48:12;;;;;;;7.50;5.05;;;7.70;99.90;;;;;;5054980;28;20127;-66
2024/03/05 07:50:39;;;;;;;10.70;5.47;;;7.70;99.90;;;;;;5055720;28;20128;-66
2024/03/05 07:53:06;;;;;;;11.90;5.80;;;7.80;99.90;;;;;;5043333;28;20044;-66
2024/03/05 07:55:41;;;;;;;11.27;5.72;;;7.80;99.90;;;;;;5034955;28;20046;-66
2024/03/05 07:58:13;;;;;;;9.18;5.03;;;7.80;99.90;;;;;;5035178;28;20391;-66
2024/03/05 08:00:40;;;;;;;12.52;5.72;;;7.90;99.90;;;;;;5035344;28;20061;-66
2024/03/05 08:03:07;;;;;;;9.73;5.63;;;7.90;99.90;;;;;;5034830;28;20056;-66
2024/03/05 08:05:34;;;;;;;8.48;5.60;;;8.00;99.90;;;;;;5035017;28;20120;-66
2024/03/05 08:08:02;;;;;;;11.07;5.65;;;8.00;99.90;;;;;;5035114;28;20048;-66
2024/03/05 08:10:29;;;;;;;9.90;5.90;;;8.00;99.90;;;;;;5035206;28;20463;-66
2024/03/05 08:12:56;;;;;;;13.98;6.13;;;8.10;99.90;;;;;;5034843;28;20100;-66
2024/03/05 08:15:26;;;;;;;9.85;5.60;;;8.10;99.90;;;;;;5034549;28;20056;-66
2024/03/05 08:17:53;;;;;;;12.50;6.32;;;8.20;99.90;;;;;;5034912;28;20044;-66
2024/03/05 08:20:20;;;;;;;12.43;6.72;;;8.30;99.90;;;;;;5034357;28;20116;-66
2024/03/05 08:22:47;;;;;;;13.30;5.80;;;8.30;99.90;;;;;;5033400;28;20382;-66
2024/03/05 08:25:15;;;;;;;11.52;6.38;;;8.40;99.90;;;;;;5034271;28;20490;-67
2024/03/05 08:27:41;;;;;;;7.80;5.50;;;8.40;99.90;;;;;;5034407;28;20393;-67
2024/03/05 08:30:08;;;;;;;12.57;5.75;;;8.50;99.90;;;;;;5034672;28;20045;-66
2024/03/05 08:32:35;;;;;;;12.20;5.78;;;8.50;99.90;;;;;;5034838;28;20502;-66
2024/03/05 08:35:02;;;;;;;11.77;6.47;;;8.60;99.90;;;;;;5035512;28;20044;-66
2024/03/05 08:37:29;;;;;;;9.27;6.07;;;8.60;99.90;;;;;;5034043;28;20050;-66
2024/03/05 08:39:56;;;;;;;11.30;5.82;;;8.60;99.90;;;;;;5034288;28;20048;-65
2024/03/05 08:42:23;;;;;;;7.82;5.70;;;8.70;99.90;;;;;;5034758;28;20179;-65
2024/03/05 08:44:49;;;;;;;12.93;6.30;;;8.70;99.90;;;;;;5034697;28;20356;-65
2024/03/05 08:47:16;;;;;;;11.95;6.40;;;8.70;99.90;;;;;;5032880;28;20387;-65
2024/03/05 08:49:44;;;;;;;12.68;6.35;;;8.70;99.90;;;;;;5034512;28;20099;-65
2024/03/05 08:52:12;;;;;;;9.20;5.75;;;8.70;99.90;;;;;;5033009;28;20042;-65
2024/03/05 08:54:39;;;;;;;7.97;5.72;;;8.70;99.90;;;;;;5033779;28;20033;-65
2024/03/05 08:57:06;;;;;;;11.05;5.78;;;8.60;99.90;;;;;;5034216;28;20045;-65
2024/03/05 08:59:34;;;;;;;14.10;6.50;;;8.60;99.90;;;;;;5034191;28;20041;-65
2024/03/05 09:02:01;;;;;;;10.35;5.50;;;8.60;99.90;;;;;;5033768;28;20525;-65
2024/03/05 09:04:28;;;;;;;10.20;5.93;;;8.60;99.90;;;;;;5034087;28;20073;-66
2024/03/05 09:06:55;;;;;;;10.15;5.50;;;8.60;99.90;;;;;;5033691;28;20381;-66
2024/03/05 09:09:22;;;;;;;9.82;5.45;;;8.70;99.90;;;;;;5033989;28;20386;-65
2024/03/05 09:11:49;;;;;;;9.45;5.63;;;8.70;99.90;;;;;;5034220;28;20077;-65
2024/03/05 09:14:16;;;;;;;7.70;4.60;;;8.70;99.90;;;;;;5033015;28;20038;-65
2024/03/05 09:16:42;;;;;;;10.25;5.38;;;8.60;99.90;;;;;;5041242;28;20041;-65
2024/03/05 09:19:10;;;;;;;8.88;4.47;;;8.70;99.90;;;;;;5033685;28;20052;-65
2024/03/05 09:21:38;;;;;;;8.93;4.85;;;8.70;99.90;;;;;;5010187;28;20049;-65
2024/03/05 09:24:06;;;;;;;8.57;5.05;;;8.80;99.90;;;;;;5033101;28;20049;-65
2024/03/05 09:26:33;;;;;;;8.02;4.32;;;8.90;99.90;;;;;;5032367;28;20120;-64
2024/03/05 09:29:00;;;;;;;8.55;3.25;;;9.00;99.90;;;;;;5033090;28;20109;-65
2024/03/05 09:31:27;;;;;;;6.45;3.65;;;9.00;99.90;;;;;;5032638;28;20073;-64
2024/03/05 09:33:54;;;;;;;7.90;4.72;;;9.10;99.90;;;;;;5031862;28;20100;-65
2024/03/05 09:36:20;;;;;;;9.52;4.72;;;9.10;99.90;;;;;;5033126;28;20034;-64
2024/03/05 09:38:47;;;;;;;11.75;5.30;;;9.10;99.90;;;;;;5043523;28;20041;-64
2024/03/05 09:41:14;;;;;;;7.70;4.75;;;9.20;99.90;;;;;;5042368;28;20048;-65
2024/03/05 09:43:41;;;;;;;9.25;4.70;;;9.20;99.90;;;;;;5033316;28;20103;-66
2024/03/05 09:46:08;;;;;;;8.60;5.00;;;9.30;99.90;;;;;;5032147;28;20053;-66
2024/03/05 09:48:35;;;;;;;7.63;4.28;;;9.40;99.90;;;;;;5033043;28;20045;-66
2024/03/05 09:51:02;;;;;;;6.78;4.63;;;9.40;99.90;;;;;;5032815;28;20138;-66
2024/03/05 09:53:28;;;;;;;7.82;3.92;;;9.40;99.90;;;;;;5032766;28;20449;-66
2024/03/05 09:55:55;;;;;;;6.35;3.85;;;9.30;99.90;;;;;;5043081;28;20037;-65
2024/03/05 09:58:22;;;;;;;7.40;3.75;;;9.40;99.90;;;;;;5052598;28;20045;-65
2024/03/05 10:00:51;;;;;;;9.90;4.10;;;9.40;99.90;;;;;;5052262;28;20044;-65
2024/03/05 10:03:18;;;;;;;7.80;4.47;;;9.40;99.90;;;;;;5054647;28;20048;-65
2024/03/05 10:05:45;;;;;;;8.18;4.57;;;9.50;99.90;;;;;;5056602;28;20047;-65
2024/03/05 10:08:14;;;;;;;9.77;4.53;;;9.50;99.90;;;;;;5056401;28;20045;-65
2024/03/05 10:10:41;;;;;;;6.78;3.30;;;9.60;99.90;;;;;;5048907;28;20038;-66
2024/03/05 10:13:07;;;;;;;8.38;3.20;;;9.70;99.90;;;;;;5036533;28;20523;-64
2024/03/05 10:15:37;;;;;;;6.85;3.33;;;9.70;99.90;;;;;;5036332;28;20057;-65
2024/03/05 10:18:05;;;;;;;7.55;3.45;;;9.70;99.90;;;;;;5036538;28;20034;-65
2024/03/05 10:20:32;;;;;;;8.35;3.13;;;9.70;99.90;;;;;;5036304;28;20033;-67
2024/03/05 10:23:00;;;;;;;7.22;2.83;;;9.80;99.90;;;;;;5035027;28;20391;-66
2024/03/05 10:25:28;;;;;;;8.57;3.10;;;9.70;99.90;;;;;;5036248;28;20042;-65
2024/03/05 10:27:55;;;;;;;5.28;2.97;;;9.60;99.90;;;;;;5036256;28;20041;-64
2024/03/05 10:30:22;;;;;;;6.60;2.53;;;9.60;99.90;;;;;;5034890;28;20080;-63
2024/03/05 10:32:49;;;;;;;6.13;2.65;;;9.60;99.90;;;;;;5036061;28;20041;-65
2024/03/05 10:35:16;;;;;;;3.72;2.20;;;9.60;99.90;;;;;;5024720;28;20041;-64
2024/03/05 10:37:43;;;;;;;4.57;2.40;;;9.60;99.90;;;;;;5050781;28;20131;-65
2024/03/05 10:40:09;;;;;;;7.35;2.90;;;9.60;99.90;;;;;;5057763;28;20041;-65
2024/03/05 10:42:38;;;;;;;4.70;2.20;;;9.50;99.90;;;;;;5040838;28;20049;-65
2024/03/05 10:45:04;;;;;;;4.38;2.78;;;9.50;99.90;;;;;;5037285;28;20091;-65
2024/03/05 10:47:31;;;;;;;4.72;2.08;;;9.40;99.90;;;;;;5049523;28;20048;-65
2024/03/05 10:49:58;;;;;;;4.35;1.90;;;9.50;99.90;;;;;;5056822;28;20048;-65
2024/03/05 10:52:26;;;;;;;3.75;1.63;;;9.50;99.90;;;;;;5054800;28;20065;-66
2024/03/05 10:54:52;;;;;;;6.10;1.90;;;9.40;99.90;;;;;;5056376;28;20037;-66
2024/03/05 10:57:19;;;;;;;3.67;1.55;;;9.30;99.90;;;;;;5055183;28;20037;-66
2024/03/05 10:59:53;;;;;;;4.55;1.40;;;9.10;99.90;;;;;;5056450;28;20041;-66
2024/03/05 11:02:22;;;;;;;5.00;1.45;;;9.00;99.90;;;;;;5054852;28;20045;-66
2024/03/05 11:04:49;;;;;;;5.75;2.03;;;9.00;99.90;;;;;;5054982;28;20114;-67
2024/03/05 11:07:16;;;;;;;5.00;3.70;;;9.00;99.90;;;;;;5055766;28;20044;-66
2024/03/05 11:09:46;;;;;;;9.23;5.60;;;9.10;99.90;;;;;;5054441;28;20041;-67
2024/03/05 11:12:13;;;;;;;13.75;8.65;;;9.10;99.90;;;;;;5055739;28;20492;-67
2024/03/05 11:14:40;;;;;;;16.67;10.20;;;9.00;99.90;;;;;;5053682;28;20502;-67
2024/03/05 11:17:11;;;;;;;12.93;9.07;;;9.00;99.90;;;;;;5054567;28;20040;-67
2024/03/05 11:19:39;;;;;;;16.58;10.98;;;9.00;99.90;;;;;;5054470;28;20064;-67
2024/03/05 11:22:06;;;;;;;15.43;10.05;;;9.10;99.90;;;;;;5054834;28;20143;-67
2024/03/05 11:24:33;;;;;;;16.55;11.27;;;9.20;99.90;;;;;;5053279;28;20048;-67
2024/03/05 11:27:01;;;;;;;15.45;11.65;;;9.20;99.90;;;;;;5055358;28;20052;-66
2024/03/05 11:29:28;;;;;;;21.88;12.20;;;9.20;99.90;;;;;;5054587;28;20047;-67
2024/03/05 11:31:55;;;;;;;16.83;10.63;;;9.10;99.90;;;;;;5054528;28;20045;-67
2024/03/05 11:34:22;;;;;;;14.52;9.35;;;9.10;99.90;;;;;;5055244;28;20033;-66
2024/03/05 11:36:49;;;;;;;13.15;8.30;;;9.00;99.90;;;;;;5053079;28;20045;-66
2024/03/05 11:39:19;;;;;;;9.00;6.45;;;8.90;99.90;;;;;;5055489;28;20037;-66
2024/03/05 11:41:46;;;;;;;10.48;5.57;;;8.80;99.90;;;;;;5054103;28;20040;-65
2024/03/05 11:44:13;;;;;;;7.32;4.47;;;8.80;99.90;;;;;;5055521;28;20154;-65
2024/03/05 11:46:40;;;;;;;7.15;3.85;;;8.80;99.90;;;;;;5053693;28;20033;-65
2024/03/05 11:49:06;;;;;;;8.15;3.50;;;8.80;99.90;;;;;;5055294;28;20076;-66
2024/03/05 11:51:33;;;;;;;8.43;3.10;;;8.80;99.90;;;;;;5055352;28;20041;-66
2024/03/05 11:54:00;;;;;;;6.07;3.22;;;8.80;99.90;;;;;;5053538;28;20041;-66
2024/03/05 11:56:27;;;;;;;10.07;4.32;;;8.80;99.90;;;;;;5054646;28;20071;-66
2024/03/05 11:58:57;;;;;;;11.35;4.93;;;8.70;99.90;;;;;;5051511;28;20128;-65
2024/03/05 12:01:24;;;;;;;14.00;7.07;;;8.70;99.90;;;;;;5053790;28;20162;-66
2024/03/05 12:03:51;;;;;;;16.05;7.85;;;8.70;99.90;;;;;;5054004;28;20045;-66
2024/03/05 12:06:19;;;;;;;15.23;8.10;;;8.70;99.90;;;;;;5054805;28;20041;-65
2024/03/05 12:08:45;;;;;;;16.10;8.98;;;8.70;99.90;;;;;;5055084;28;20467;-66
2024/03/05 12:11:12;;;;;;;15.98;10.60;;;8.70;99.90;;;;;;5053444;28;20049;-65
2024/03/05 12:13:40;;;;;;;14.98;10.43;;;8.70;99.90;;;;;;5054345;28;20041;-65
2024/03/05 12:16:07;;;;;;;17.00;10.85;;;8.70;99.90;;;;;;5053021;28;20403;-66
2024/03/05 12:18:33;;;;;;;18.27;11.02;;;8.70;99.90;;;;;;5054547;28;20071;-65
2024/03/05 12:21:00;;;;;;;18.05;10.20;;;8.70;99.90;;;;;;5053107;28;20505;-65
2024/03/05 12:23:27;;;;;;;13.98;10.05;;;8.70;99.90;;;;;;5054488;28;20047;-65
2024/03/05 12:26:09;;;;;;;15.25;10.23;;;8.70;99.90;;;;;;5053997;28;20069;-65
2024/03/05 12:28:36;;;;;;;14.07;9.32;;;8.70;99.90;;;;;;5048204;28;20045;-65
2024/03/05 12:31:03;;;;;;;14.73;8.65;;;8.70;99.90;;;;;;5034979;28;20049;-65
2024/03/05 12:33:30;;;;;;;11.02;6.63;;;8.80;99.90;;;;;;5044336;28;20444;-65
2024/03/05 12:35:58;;;;;;;12.93;6.47;;;8.80;99.90;;;;;;5054526;28;20039;-65
2024/03/05 12:38:25;;;;;;;15.65;7.60;;;8.80;99.90;;;;;;5052999;28;20041;-65
2024/03/05 12:40:53;;;;;;;12.68;8.05;;;8.90;99.90;;;;;;5054624;28;20398;-65
2024/03/05 12:43:20;;;;;;;14.48;7.57;;;8.90;99.90;;;;;;5053068;28;20044;-65
2024/03/05 12:45:48;;;;;;;13.07;8.23;;;9.00;99.90;;;;;;5054681;28;20041;-66
2024/03/05 12:48:15;;;;;;;12.95;7.30;;;9.00;99.90;;;;;;5054398;28;20044;-66
2024/03/05 12:50:42;;;;;;;14.18;7.05;;;9.10;99.90;;;;;;5053021;28;20049;-65
2024/03/05 12:53:09;;;;;;;10.57;6.22;;;9.20;99.90;;;;;;5053966;28;20033;-65
2024/03/05 12:55:37;;;;;;;9.30;5.50;;;9.30;99.90;;;;;;5052327;28;20049;-65
2024/03/05 12:58:05;;;;;;;11.80;5.97;;;9.40;99.90;;;;;;5053590;28;20041;-65
2024/03/05 13:00:34;;;;;;;8.35;4.90;;;9.40;99.90;;;;;;5052597;28;20033;-65